createdAt,value
2018-08-10T00:01:59.750Z,51.10
2018-08-10T00:04:29.115Z,51.10
2018-08-10T00:06:58.520Z,51.30
2018-08-10T00:09:28.029Z,51.40
2018-08-10T00:11:57.393Z,51.40
2018-08-10T00:14:27.409Z,51.30
2018-08-10T00:16:56.781Z,51.40
2018-08-10T00:19:26.235Z,51.30
2018-08-10T00:21:55.605Z,51.60
2018-08-10T00:24:25.081Z,51.40
2018-08-10T00:26:54.509Z,51.30
2018-08-10T00:29:23.942Z,51.30
2018-08-10T00:31:53.344Z,51.30
2018-08-10T00:34:23.634Z,51.40
2018-08-10T00:36:52.993Z,51.40
2018-08-10T00:39:22.410Z,51.30
2018-08-10T00:41:52.761Z,51.30
2018-08-10T00:44:22.137Z,51.30
2018-08-10T00:46:51.477Z,51.30
2018-08-10T00:49:20.922Z,51.40
2018-08-10T00:51:50.265Z,51.30
2018-08-10T00:54:19.648Z,51.40
2018-08-10T00:56:49.049Z,51.30
2018-08-10T00:59:18.453Z,51.40
2018-08-10T01:01:47.788Z,51.30
2018-08-10T01:04:17.393Z,51.30
2018-08-10T01:06:46.805Z,51.40
2018-08-10T01:09:16.213Z,51.30
2018-08-10T01:11:50.052Z,51.30
2018-08-10T01:14:19.446Z,51.20
2018-08-10T01:16:48.805Z,51.20
2018-08-10T01:19:18.287Z,51.30
2018-08-10T01:21:47.609Z,51.30
2018-08-10T01:24:17.237Z,51.20
2018-08-10T01:26:46.637Z,51.30
2018-08-10T01:29:16.081Z,51.30
2018-08-10T01:31:45.920Z,51.20
2018-08-10T01:34:15.257Z,51.30
2018-08-10T01:36:44.629Z,51.30
2018-08-10T01:39:14.014Z,51.30
2018-08-10T01:41:43.374Z,51.30
2018-08-10T01:44:12.782Z,51.40
2018-08-10T01:46:42.152Z,51.20
2018-08-10T01:49:11.554Z,51.20
2018-08-10T01:51:40.925Z,51.30
2018-08-10T01:54:10.301Z,51.30
2018-08-10T01:56:39.762Z,51.40
2018-08-10T01:59:09.206Z,51.30
2018-08-10T02:01:38.821Z,51.30
2018-08-10T02:04:08.189Z,51.50
2018-08-10T02:06:37.601Z,51.40
2018-08-10T02:09:10.385Z,51.40
2018-08-10T02:11:39.766Z,51.30
2018-08-10T02:14:09.402Z,51.30
2018-08-10T02:16:38.769Z,51.40
2018-08-10T02:19:48.866Z,51.40
2018-08-10T02:22:18.205Z,51.30
2018-08-10T02:24:47.597Z,51.30
2018-08-10T02:27:16.989Z,51.40
2018-08-10T02:29:46.401Z,51.50
2018-08-10T02:32:15.763Z,51.60
2018-08-10T02:34:45.374Z,51.50
2018-08-10T02:37:14.739Z,51.40
2018-08-10T02:39:44.200Z,51.50
2018-08-10T02:42:13.573Z,51.50
2018-08-10T02:44:43.019Z,51.50
2018-08-10T02:47:12.385Z,51.50
2018-08-10T02:49:41.758Z,51.50
2018-08-10T02:52:11.130Z,51.60
2018-08-10T02:54:40.702Z,51.50
2018-08-10T02:57:10.094Z,51.60
2018-08-10T02:59:39.685Z,51.60
2018-08-10T03:02:09.817Z,51.50
2018-08-10T03:04:39.380Z,51.60
2018-08-10T03:07:08.793Z,51.60
2018-08-10T03:09:39.598Z,51.50
2018-08-10T03:12:10.386Z,51.60
2018-08-10T03:14:40.306Z,51.50
2018-08-10T03:17:09.922Z,51.50
2018-08-10T03:19:39.332Z,51.50
2018-08-10T03:22:09.241Z,51.50
2018-08-10T03:24:38.557Z,51.60
2018-08-10T03:27:08.551Z,51.60
2018-08-10T03:29:39.629Z,51.60
2018-08-10T03:32:09.019Z,51.70
2018-08-10T03:34:38.392Z,51.70
2018-08-10T03:37:08.279Z,51.60
2018-08-10T03:39:37.696Z,51.70
2018-08-10T03:42:07.090Z,52.30
2018-08-10T03:44:36.474Z,51.60
2018-08-10T03:47:05.902Z,51.60
2018-08-10T03:49:35.310Z,51.60
2018-08-10T03:52:05.541Z,51.60
2018-08-10T03:54:34.905Z,51.50
2018-08-10T03:57:04.334Z,51.60
2018-08-10T03:59:33.725Z,51.70
2018-08-10T04:02:03.115Z,51.60
2018-08-10T04:04:33.706Z,51.70
2018-08-10T04:07:03.049Z,51.60
2018-08-10T04:09:32.476Z,51.60
2018-08-10T04:12:01.842Z,51.60
2018-08-10T04:14:31.186Z,51.60
2018-08-10T04:17:00.553Z,51.60
2018-08-10T04:19:29.961Z,51.60
2018-08-10T04:21:59.345Z,51.60
2018-08-10T04:24:28.669Z,51.60
2018-08-10T04:26:58.033Z,51.60
2018-08-10T04:29:27.457Z,51.60
2018-08-10T04:31:56.795Z,51.60
2018-08-10T04:34:26.811Z,51.60
2018-08-10T04:36:56.170Z,51.60
2018-08-10T04:39:25.592Z,51.60
2018-08-10T04:41:54.993Z,51.50
2018-08-10T04:44:24.317Z,51.60
2018-08-10T04:46:53.688Z,51.60
2018-08-10T04:49:23.314Z,51.70
2018-08-10T04:51:52.702Z,51.70
2018-08-10T04:54:22.069Z,51.60
2018-08-10T04:56:51.786Z,51.60
2018-08-10T04:59:21.217Z,51.50
2018-08-10T05:01:50.958Z,51.30
2018-08-10T05:04:20.298Z,51.50
2018-08-10T05:06:49.637Z,51.40
2018-08-10T05:09:19.082Z,51.60
2018-08-10T05:11:48.485Z,51.70
2018-08-10T05:14:17.838Z,51.70
2018-08-10T05:16:47.253Z,52.20
2018-08-10T05:19:16.641Z,51.60
2018-08-10T05:21:46.018Z,51.70
2018-08-10T05:24:15.426Z,51.70
2018-08-10T05:26:44.813Z,51.70
2018-08-10T05:29:14.229Z,51.60
2018-08-10T05:31:43.928Z,51.60
2018-08-10T05:34:13.394Z,51.60
2018-08-10T05:36:42.747Z,51.70
2018-08-10T05:39:13.098Z,51.70
2018-08-10T05:41:42.511Z,51.70
2018-08-10T05:44:11.888Z,51.80
2018-08-10T05:46:43.194Z,51.60
2018-08-10T05:49:12.545Z,51.60
2018-08-10T05:51:41.933Z,51.60
2018-08-10T05:54:11.280Z,51.60
2018-08-10T05:56:40.641Z,51.60
2018-08-10T05:59:10.246Z,51.60
2018-08-10T06:01:40.593Z,51.60
2018-08-10T06:04:09.951Z,51.50
2018-08-10T06:06:40.329Z,51.60
2018-08-10T06:09:13.768Z,51.60
2018-08-10T06:11:44.428Z,51.60
2018-08-10T06:14:14.940Z,51.60
2018-08-10T06:16:44.564Z,51.60
2018-08-10T06:19:13.908Z,51.60
2018-08-10T06:21:43.369Z,51.60
2018-08-10T06:24:12.652Z,51.70
2018-08-10T06:26:43.386Z,51.60
2018-08-10T06:29:12.725Z,51.60
2018-08-10T06:31:42.149Z,51.70
2018-08-10T06:34:11.498Z,51.80
2018-08-10T06:36:40.878Z,51.80
2018-08-10T06:39:11.030Z,51.90
2018-08-10T06:41:40.645Z,51.90
2018-08-10T06:44:10.037Z,51.90
2018-08-10T06:46:39.377Z,51.70
2018-08-10T06:49:08.803Z,51.90
2018-08-10T06:51:38.218Z,51.90
2018-08-10T06:54:07.533Z,51.80
2018-08-10T06:56:36.904Z,51.90
2018-08-10T06:59:06.376Z,51.80
2018-08-10T07:01:36.634Z,51.90
2018-08-10T07:04:06.009Z,51.80
2018-08-10T07:06:35.321Z,51.70
2018-08-10T07:09:07.873Z,51.80
2018-08-10T07:11:37.297Z,51.80
2018-08-10T07:14:06.789Z,51.70
2018-08-10T07:16:36.185Z,51.80
2018-08-10T07:19:05.542Z,51.80
2018-08-10T07:21:34.925Z,51.80
2018-08-10T07:24:04.948Z,51.80
2018-08-10T07:26:34.333Z,51.70
2018-08-10T07:29:05.116Z,51.70
2018-08-10T07:31:34.602Z,51.60
2018-08-10T07:34:03.983Z,51.70
2018-08-10T07:36:37.622Z,51.90
2018-08-10T07:39:14.366Z,51.60
2018-08-10T07:41:47.200Z,51.70
2018-08-10T07:44:18.496Z,51.70
2018-08-10T07:46:48.058Z,51.70
2018-08-10T07:49:17.508Z,51.60
2018-08-10T07:51:48.247Z,51.60
2018-08-10T07:54:17.707Z,51.60
2018-08-10T07:56:47.253Z,51.70
2018-08-10T07:59:16.717Z,51.30
2018-08-10T08:01:46.201Z,51.50
2018-08-10T08:04:15.695Z,51.30
2018-08-10T08:06:45.367Z,51.50
2018-08-10T08:09:14.870Z,51.20
2018-08-10T08:11:44.545Z,51.20
2018-08-10T08:14:15.194Z,51.10
2018-08-10T08:16:44.613Z,51.20
2018-08-10T08:19:13.999Z,51.10
2018-08-10T08:22:11.814Z,51.00
2018-08-10T08:24:42.841Z,51.10
2018-08-10T08:27:13.559Z,51.00
2018-08-10T08:29:44.585Z,50.80
2018-08-10T08:32:14.137Z,50.70
2018-08-10T08:34:44.199Z,50.90
2018-08-10T08:37:13.486Z,51.00
2018-08-10T08:40:50.201Z,50.40
2018-08-10T08:44:40.532Z,50.80
2018-08-10T08:47:10.017Z,50.90
2018-08-10T08:49:39.865Z,50.80
2018-08-10T08:52:09.398Z,50.40
2018-08-10T08:55:56.332Z,50.80
2018-08-10T08:58:26.062Z,50.40
2018-08-10T09:00:55.533Z,50.50
2018-08-10T09:03:41.898Z,50.40
2018-08-10T09:06:11.348Z,50.70
2018-08-10T09:08:53.685Z,50.50
2018-08-10T09:11:23.090Z,50.60
2018-08-10T09:15:02.682Z,50.80
2018-08-10T09:17:32.279Z,50.70
2018-08-10T09:20:01.630Z,50.30
2018-08-10T09:22:31.329Z,50.70
2018-08-10T09:25:00.753Z,50.50
2018-08-10T09:27:30.111Z,50.50
2018-08-10T09:29:59.897Z,50.50
2018-08-10T09:32:29.311Z,50.50
2018-08-10T09:34:59.147Z,50.40
2018-08-10T09:37:30.184Z,50.30
2018-08-10T09:39:59.533Z,50.20
2018-08-10T09:42:28.950Z,50.30
2018-08-10T09:44:58.313Z,49.70
2018-08-10T09:47:27.697Z,50.20
2018-08-10T09:49:57.058Z,50.30
2018-08-10T09:52:26.515Z,49.90
2018-08-10T09:55:32.017Z,49.50
2018-08-10T09:58:05.689Z,49.50
2018-08-10T10:00:40.242Z,49.60
2018-08-10T10:03:19.128Z,50.10
2018-08-10T10:05:49.514Z,50.20
2018-08-10T10:08:19.337Z,49.20
2018-08-10T10:10:48.769Z,49.10
2018-08-10T10:13:18.294Z,48.80
2018-08-10T10:15:47.704Z,48.60
2018-08-10T10:18:17.952Z,48.20
2018-08-10T10:20:48.167Z,48.30
2018-08-10T10:23:17.548Z,48.30
2018-08-10T10:25:46.906Z,48.40
2018-08-10T10:28:16.280Z,48.40
2018-08-10T10:30:45.671Z,48.40
2018-08-10T10:33:15.041Z,48.20
2018-08-10T10:35:44.413Z,48.20
2018-08-10T10:38:13.798Z,48.10
2018-08-10T10:40:43.272Z,48.00
2018-08-10T10:43:12.714Z,48.00
2018-08-10T10:45:42.303Z,47.90
2018-08-10T10:48:11.676Z,47.90
2018-08-10T10:50:41.070Z,47.90
2018-08-10T10:53:12.215Z,47.90
2018-08-10T10:55:41.582Z,47.90
2018-08-10T10:58:10.942Z,47.80
2018-08-10T11:00:40.408Z,47.70
2018-08-10T11:03:09.792Z,47.90
2018-08-10T11:05:39.126Z,47.80
2018-08-10T11:08:08.554Z,47.60
2018-08-10T11:10:37.945Z,47.70
2018-08-10T11:13:07.517Z,48.10
2018-08-10T11:15:36.868Z,47.30
2018-08-10T11:18:06.279Z,48.10
2018-08-10T11:20:35.626Z,47.40
2018-08-10T11:23:05.270Z,47.40
2018-08-10T11:25:34.657Z,47.50
2018-08-10T11:28:04.009Z,47.30
2018-08-10T11:30:33.397Z,47.40
2018-08-10T11:33:02.788Z,46.90
2018-08-10T11:35:32.353Z,46.60
2018-08-10T11:38:01.689Z,47.20
2018-08-10T11:40:31.081Z,47.40
2018-08-10T11:43:00.453Z,47.40
2018-08-10T11:45:29.817Z,47.40
2018-08-10T11:47:59.170Z,46.70
2018-08-10T11:50:28.534Z,47.30
2018-08-10T11:52:57.954Z,47.40
2018-08-10T11:55:27.313Z,47.50
2018-08-10T11:57:56.693Z,47.60
2018-08-10T12:00:26.186Z,47.50
2018-08-10T12:02:55.575Z,47.20
2018-08-10T12:05:28.434Z,47.50
2018-08-10T12:07:58.156Z,47.40
2018-08-10T12:10:27.617Z,47.50
2018-08-10T12:12:57.014Z,47.60
2018-08-10T12:15:26.402Z,47.70
2018-08-10T12:17:56.011Z,47.60
2018-08-10T12:20:25.361Z,47.60
2018-08-10T12:22:54.753Z,47.60
2018-08-10T12:25:24.081Z,47.60
2018-08-10T12:27:53.438Z,47.50
2018-08-10T12:30:22.872Z,47.60
2018-08-10T12:32:52.237Z,47.50
2018-08-10T12:35:21.559Z,47.60
2018-08-10T12:37:50.921Z,47.50
2018-08-10T12:40:20.300Z,47.60
2018-08-10T12:42:49.718Z,47.60
2018-08-10T12:45:19.049Z,47.70
2018-08-10T12:47:48.838Z,47.60
2018-08-10T12:50:18.222Z,47.60
2018-08-10T12:52:47.610Z,47.60
2018-08-10T12:55:16.994Z,47.60
2018-08-10T12:57:47.096Z,47.60
2018-08-10T13:00:16.457Z,47.60
2018-08-10T13:02:46.575Z,47.50
2018-08-10T13:05:15.953Z,47.40
2018-08-10T13:07:45.294Z,47.40
2018-08-10T13:10:14.713Z,47.30
2018-08-10T13:12:44.137Z,47.40
2018-08-10T13:15:19.833Z,47.40
2018-08-10T13:17:49.215Z,47.50
2018-08-10T13:20:18.572Z,47.60
2018-08-10T13:22:47.960Z,47.50
2018-08-10T13:25:17.318Z,47.60
2018-08-10T13:27:46.661Z,47.50
2018-08-10T13:30:16.066Z,47.90
2018-08-10T13:32:45.550Z,47.50
2018-08-10T13:35:14.889Z,47.50
2018-08-10T13:37:44.506Z,47.40
2018-08-10T13:40:13.863Z,47.50
2018-08-10T13:42:43.313Z,47.40
2018-08-10T13:45:13.975Z,47.30
2018-08-10T13:47:43.726Z,47.40
2018-08-10T13:50:16.197Z,47.30
2018-08-10T13:52:46.158Z,47.30
2018-08-10T13:55:17.949Z,47.30
2018-08-10T13:57:48.325Z,47.20
2018-08-10T14:00:25.033Z,47.20
2018-08-10T14:02:55.801Z,47.10
2018-08-10T14:05:25.558Z,47.10
2018-08-10T14:07:54.957Z,47.10
2018-08-10T14:10:24.407Z,47.10
2018-08-10T14:12:53.787Z,47.00
2018-08-10T14:15:23.185Z,47.00
2018-08-10T14:17:52.579Z,47.00
2018-08-10T14:20:21.998Z,47.00
2018-08-10T14:22:51.377Z,47.10
2018-08-10T14:25:20.779Z,47.00
2018-08-10T14:27:51.454Z,47.00
2018-08-10T14:30:20.810Z,46.90
2018-08-10T14:32:50.261Z,47.00
2018-08-10T14:35:19.730Z,46.90
2018-08-10T14:37:49.129Z,47.00
2018-08-10T14:40:18.576Z,46.90
2018-08-10T14:42:47.999Z,46.90
2018-08-10T14:45:17.496Z,46.90
2018-08-10T14:47:46.907Z,46.90
2018-08-10T14:50:16.385Z,46.90
2018-08-10T14:52:45.875Z,46.90
2018-08-10T14:55:16.382Z,46.80
2018-08-10T14:57:45.862Z,46.90
2018-08-10T15:00:18.986Z,47.50
2018-08-10T15:02:48.754Z,46.80
2018-08-10T15:05:18.492Z,46.80
2018-08-10T15:07:47.910Z,46.60
2018-08-10T15:10:17.833Z,46.50
2018-08-10T15:12:47.976Z,46.50
2018-08-10T15:15:18.492Z,46.30
2018-08-10T15:17:48.270Z,46.20
2018-08-10T15:20:20.559Z,46.20
2018-08-10T15:22:50.099Z,46.20
2018-08-10T15:25:19.490Z,46.30
2018-08-10T15:27:49.105Z,46.30
2018-08-10T15:30:19.208Z,46.40
2018-08-10T15:32:48.638Z,46.40
2018-08-10T15:35:18.504Z,46.40
2018-08-10T15:37:47.933Z,46.50
2018-08-10T15:40:19.001Z,46.40
2018-08-10T15:42:48.398Z,46.40
2018-08-10T15:45:18.373Z,46.50
2018-08-10T15:47:48.066Z,46.50
2018-08-10T15:50:17.865Z,46.70
2018-08-10T15:52:47.365Z,46.50
2018-08-10T15:55:16.797Z,46.50
2018-08-10T15:57:46.228Z,46.60
2018-08-10T16:00:21.456Z,46.50
2018-08-10T16:02:50.938Z,46.50
2018-08-10T16:05:20.344Z,46.40
2018-08-10T16:07:49.670Z,46.40
2018-08-10T16:10:19.101Z,46.40
2018-08-10T16:12:55.039Z,45.90
2018-08-10T16:15:24.425Z,46.40
2018-08-10T16:17:53.931Z,46.30
2018-08-10T16:20:23.521Z,46.30
2018-08-10T16:22:52.946Z,46.30
2018-08-10T16:25:22.294Z,46.30
2018-08-10T16:27:51.692Z,46.40
2018-08-10T16:30:21.149Z,46.40
2018-08-10T16:32:51.191Z,46.30
2018-08-10T16:35:20.590Z,46.40
2018-08-10T16:37:49.940Z,46.40
2018-08-10T16:40:20.164Z,46.40
2018-08-10T16:42:49.651Z,46.30
2018-08-10T16:45:19.041Z,46.30
2018-08-10T16:47:48.469Z,46.40
2018-08-10T16:50:19.152Z,46.40
2018-08-10T16:52:48.521Z,46.30
2018-08-10T16:55:19.358Z,46.40
2018-08-10T16:57:49.438Z,46.30
2018-08-10T17:00:22.869Z,46.30
2018-08-10T17:02:52.211Z,46.30
2018-08-10T17:05:21.649Z,46.40
2018-08-10T17:07:51.781Z,46.40
2018-08-10T17:10:21.166Z,46.40
2018-08-10T17:12:50.533Z,46.40
2018-08-10T17:15:20.613Z,46.40
2018-08-10T17:17:50.000Z,46.50
2018-08-10T17:20:19.569Z,46.40
2018-08-10T17:22:48.986Z,46.50
2018-08-10T17:25:20.395Z,46.40
2018-08-10T17:27:49.836Z,46.40
2018-08-10T17:30:20.192Z,46.40
2018-08-10T17:32:49.670Z,46.50
2018-08-10T17:35:19.446Z,46.60
2018-08-10T17:37:48.849Z,46.50
2018-08-10T17:40:18.288Z,46.50
2018-08-10T17:42:47.892Z,46.50
2018-08-10T17:45:18.095Z,46.60
2018-08-10T17:47:47.458Z,46.50
2018-08-10T17:50:20.209Z,46.50
2018-08-10T17:52:56.166Z,46.60
2018-08-10T17:55:25.540Z,46.40
2018-08-10T17:57:55.467Z,46.60
2018-08-10T18:00:26.529Z,46.60
2018-08-10T18:02:55.909Z,46.40
2018-08-10T18:05:25.806Z,46.40
2018-08-10T18:07:55.212Z,46.50
2018-08-10T18:10:24.621Z,46.50
2018-08-10T18:12:54.529Z,46.50
2018-08-10T18:15:23.934Z,46.40
2018-08-10T18:17:53.334Z,46.60
2018-08-10T18:20:23.297Z,46.40
2018-08-10T18:22:53.177Z,46.60
2018-08-10T18:25:23.291Z,46.60
2018-08-10T18:27:52.653Z,46.50
2018-08-10T18:30:24.370Z,46.50
2018-08-10T18:32:53.868Z,46.60
2018-08-10T18:35:23.346Z,46.40
2018-08-10T18:37:56.518Z,46.40
2018-08-10T18:40:26.446Z,46.40
2018-08-10T18:42:56.116Z,46.20
2018-08-10T18:45:26.950Z,46.20
2018-08-10T18:47:56.472Z,46.20
2018-08-10T18:50:25.904Z,46.20
2018-08-10T18:52:55.409Z,46.20
2018-08-10T18:55:24.896Z,46.20
2018-08-10T18:57:54.291Z,46.30
2018-08-10T19:00:26.666Z,46.50
2018-08-10T19:02:56.514Z,46.40
2018-08-10T19:05:26.157Z,46.40
2018-08-10T19:07:55.637Z,46.90
2018-08-10T19:10:26.597Z,47.00
2018-08-10T19:12:57.554Z,47.00
2018-08-10T19:15:27.122Z,47.10
2018-08-10T19:17:56.749Z,47.20
2018-08-10T19:20:26.441Z,47.10
2018-08-10T19:22:55.923Z,47.00
2018-08-10T19:25:27.732Z,47.00
2018-08-10T19:27:57.420Z,46.90
2018-08-10T19:30:26.997Z,46.80
2018-08-10T19:32:56.430Z,46.70
2018-08-10T19:35:26.564Z,46.80
2018-08-10T19:37:57.616Z,46.70
2018-08-10T19:40:27.819Z,46.50
2018-08-10T19:42:57.852Z,46.70
2018-08-10T19:45:29.755Z,46.50
2018-08-10T19:47:59.454Z,46.40
2018-08-10T19:50:29.395Z,46.40
2018-08-10T19:52:59.321Z,46.40
2018-08-10T19:55:29.506Z,47.00
2018-08-10T19:58:00.295Z,46.60
2018-08-10T20:00:29.719Z,46.50
2018-08-10T20:03:00.034Z,46.50
2018-08-10T20:05:30.650Z,46.60
2018-08-10T20:08:00.566Z,46.60
2018-08-10T20:10:31.333Z,46.50
2018-08-10T20:13:01.276Z,46.40
2018-08-10T20:15:32.831Z,46.40
2018-08-10T20:18:02.159Z,46.50
2018-08-10T20:20:31.687Z,46.70
2018-08-10T20:23:01.365Z,46.60
2018-08-10T20:25:30.820Z,46.60
2018-08-10T20:28:00.263Z,46.60
2018-08-10T20:30:29.671Z,46.60
2018-08-10T20:32:59.113Z,46.60
2018-08-10T20:35:28.568Z,46.60
2018-08-10T20:37:58.246Z,46.70
2018-08-10T20:40:27.624Z,46.70
2018-08-10T20:42:57.069Z,46.80
2018-08-10T20:45:27.277Z,46.80
2018-08-10T20:47:56.734Z,46.90
2018-08-10T20:50:26.254Z,46.60
2018-08-10T20:52:55.750Z,46.70
2018-08-10T20:55:25.153Z,46.70
2018-08-10T20:57:54.553Z,46.80
2018-08-10T21:00:26.034Z,46.80
2018-08-10T21:02:55.434Z,47.30
2018-08-10T21:05:27.070Z,47.00
2018-08-10T21:07:56.503Z,47.00
2018-08-10T21:10:25.852Z,47.00
2018-08-10T21:12:55.299Z,47.00
2018-08-10T21:15:24.717Z,47.60
2018-08-10T21:17:54.117Z,47.60
2018-08-10T21:20:23.842Z,47.40
2018-08-10T21:22:53.210Z,47.50
2018-08-10T21:25:22.578Z,47.80
2018-08-10T21:27:52.588Z,47.80
2018-08-10T21:30:22.001Z,47.60
2018-08-10T21:32:51.353Z,47.70
2018-08-10T21:35:20.830Z,47.90
2018-08-10T21:37:50.342Z,47.90
2018-08-10T21:40:19.645Z,47.90
2018-08-10T21:42:49.021Z,47.90
2018-08-10T21:45:18.589Z,48.10
2018-08-10T21:47:48.056Z,48.10
2018-08-10T21:50:17.507Z,48.00
2018-08-10T21:52:47.013Z,48.30
2018-08-10T21:55:16.845Z,48.30
2018-08-10T21:57:46.257Z,48.50
2018-08-10T22:00:33.055Z,48.40
2018-08-10T22:03:03.826Z,48.30
2018-08-10T22:05:33.378Z,48.30
2018-08-10T22:08:02.766Z,48.30
2018-08-10T22:10:32.242Z,48.30
2018-08-10T22:13:01.686Z,48.50
2018-08-10T22:15:36.375Z,48.50
2018-08-10T22:18:11.085Z,48.50
2018-08-10T22:20:40.470Z,48.40
2018-08-10T22:23:09.865Z,48.40
2018-08-10T22:25:39.318Z,48.40
2018-08-10T22:28:08.781Z,48.40
2018-08-10T22:30:38.194Z,48.40
2018-08-10T22:33:08.122Z,48.40
2018-08-10T22:35:37.538Z,48.50
2018-08-10T22:38:07.029Z,48.50
2018-08-10T22:40:36.686Z,48.60
2018-08-10T22:43:06.182Z,48.70
2018-08-10T22:45:35.710Z,48.70
2018-08-10T22:48:05.258Z,48.70
2018-08-10T22:50:34.696Z,48.60
2018-08-10T22:53:04.092Z,48.50
2018-08-10T22:55:33.781Z,48.60
2018-08-10T22:58:03.191Z,48.70
2018-08-10T23:00:37.220Z,48.70
2018-08-10T23:03:08.757Z,48.70
2018-08-10T23:05:38.225Z,48.70
2018-08-10T23:08:07.689Z,48.70
2018-08-10T23:10:37.055Z,48.70
2018-08-10T23:13:06.607Z,48.70
2018-08-10T23:15:36.082Z,48.60
2018-08-10T23:18:05.699Z,48.50
2018-08-10T23:20:37.610Z,48.60
2018-08-10T23:23:06.993Z,48.50
2018-08-10T23:25:36.381Z,48.70
2018-08-10T23:28:05.845Z,48.70
2018-08-10T23:30:35.321Z,48.70
2018-08-10T23:33:04.801Z,48.90
2018-08-10T23:35:34.211Z,49.00
2018-08-10T23:38:03.620Z,49.10
2018-08-10T23:40:33.010Z,49.20
2018-08-10T23:43:02.447Z,49.20
2018-08-10T23:45:31.833Z,49.40
2018-08-10T23:48:01.222Z,49.40
2018-08-10T23:50:30.625Z,49.50
2018-08-10T23:53:00.001Z,49.50
2018-08-10T23:55:29.426Z,49.60
2018-08-10T23:57:58.828Z,49.60
